KAUW

Wausau Downtown Airport

Wausau, Wisconsin, USA
METAR KAUW 232254Z AUTO 32008KT 10SM OVC030 M05/M08 A3001 RMK AO2 SLP187 T10501083
Observed Flight Rules
Jan-23 @ 22:54 UTC (29 minutes ago) Marginal Visual Flight Rules
Wind Visibility Clouds
320° at 8 knots 10 miles
  • Overcast at 3,000' AGL
Temperatures Readings
Current -5°C / 23°F
Dewpoint -8°C / 18°F
Humidity 80%
Altimeter 30.01" Hg
Pressure 1018.7 hPa
Elevation 362
METAR KAUW 232254Z AUTO 32008KT 10SM OVC030 M05/M08 A3001 RMK AO2 SLP187 T10501083
Observed Flight Rules
Jan-23 @ 22:54 UTC
(29 minutes ago)
MVFR
Wind Visibility
320° at 8 knots 10 miles
Clouds
  • Overcast at 3,000' AGL
Temperature Dewpoint
-5°C / 23°F -8°C / 18°F
Humidity Altimeter Pressure
80% 30.01" Hg 1018.7 hPa